createdAt,value
2018-08-24T00:00:37.812Z,15.77
2018-08-24T00:03:07.100Z,16.40
2018-08-24T00:05:36.633Z,15.13
2018-08-24T00:08:06.125Z,15.03
2018-08-24T00:10:35.378Z,15.90
2018-08-24T00:13:06.115Z,15.47
2018-08-24T00:15:35.627Z,14.83
2018-08-24T00:18:04.847Z,15.40
2018-08-24T00:20:34.340Z,14.93
2018-08-24T00:23:03.837Z,14.43
2018-08-24T00:25:39.968Z,15.10
2018-08-24T00:28:09.557Z,15.50
2018-08-24T00:30:39.388Z,16.10
2018-08-24T00:33:08.583Z,15.70
2018-08-24T00:35:37.680Z,14.73
2018-08-24T00:38:07.280Z,15.50
2018-08-24T00:41:33.544Z,15.23
2018-08-24T00:44:03.656Z,15.73
2018-08-24T00:46:34.249Z,16.23
2018-08-24T00:49:03.851Z,15.70
2018-08-24T00:51:35.148Z,14.90
2018-08-24T00:54:04.550Z,15.17
2018-08-24T00:57:02.361Z,16.63
2018-08-24T00:59:33.704Z,16.80
2018-08-24T01:02:03.884Z,16.27
2018-08-24T01:04:35.220Z,15.47
2018-08-24T01:07:09.810Z,16.97
2018-08-24T01:09:40.193Z,16.17
2018-08-24T01:12:36.670Z,15.53
2018-08-24T01:18:46.444Z,15.53
2018-08-24T01:21:15.759Z,15.63
2018-08-24T01:23:45.082Z,15.13
2018-08-24T01:26:18.355Z,15.30
2018-08-24T01:28:47.625Z,16.80
2018-08-24T01:31:16.275Z,14.60
2018-08-24T01:33:45.234Z,16.07
2018-08-24T01:36:14.389Z,15.77
2018-08-24T01:39:02.156Z,15.93
2018-08-24T01:41:33.853Z,15.57
2018-08-24T01:44:15.655Z,17.47
2018-08-24T01:46:45.184Z,17.30
2018-08-24T01:49:14.343Z,15.70
2018-08-24T01:51:43.963Z,16.63
2018-08-24T01:54:13.078Z,16.63
2018-08-24T01:56:42.261Z,15.73
2018-08-24T01:59:12.238Z,15.77
2018-08-24T02:01:41.853Z,18.27
2018-08-24T02:04:11.181Z,17.53
2018-08-24T02:07:06.096Z,16.97
2018-08-24T02:09:35.438Z,17.73
2018-08-24T02:12:05.081Z,18.73
2018-08-24T02:14:39.416Z,18.53
2018-08-24T02:17:12.941Z,18.03
2018-08-24T02:19:47.283Z,19.33
2018-08-24T02:22:16.642Z,18.23
2018-08-24T02:24:45.698Z,19.67
2018-08-24T02:27:14.737Z,21.20
2018-08-24T02:29:43.957Z,21.03
2018-08-24T02:32:13.032Z,19.63
2018-08-24T02:34:42.156Z,23.23
2018-08-24T02:37:11.656Z,22.73
2018-08-24T02:39:40.841Z,24.30
2018-08-24T02:42:10.173Z,25.03
2018-08-24T02:44:39.186Z,24.37
2018-08-24T02:47:21.123Z,30.70
2018-08-24T02:49:49.698Z,29.53
2018-08-24T02:52:18.236Z,29.57
2018-08-24T02:54:46.889Z,29.27
2018-08-24T02:57:17.315Z,28.63
2018-08-24T02:59:46.700Z,29.43
2018-08-24T03:02:15.865Z,31.00
2018-08-24T03:04:44.843Z,30.23
2018-08-24T03:07:42.799Z,31.27
2018-08-24T03:10:11.958Z,32.47
2018-08-24T03:12:41.257Z,31.07
2018-08-24T03:15:10.474Z,35.57
2018-08-24T03:17:45.251Z,35.10
2018-08-24T03:20:14.342Z,36.27
2018-08-24T03:22:43.490Z,36.23
2018-08-24T03:25:12.804Z,36.43
2018-08-24T03:27:41.359Z,37.77
2018-08-24T03:30:10.411Z,37.03
2018-08-24T03:32:40.144Z,35.20
2018-08-24T03:35:09.455Z,35.70
2018-08-24T03:37:38.902Z,38.07
2018-08-24T03:40:08.071Z,38.23
2018-08-24T03:42:37.422Z,37.80
2018-08-24T03:45:08.983Z,37.50
2018-08-24T03:48:15.093Z,36.53
2018-08-24T03:50:44.511Z,37.73
2018-08-24T03:53:13.961Z,38.97
2018-08-24T03:55:43.940Z,35.93
2018-08-24T03:58:13.692Z,37.47
2018-08-24T04:00:42.838Z,33.33
2018-08-24T04:03:12.209Z,36.37
2018-08-24T04:05:45.300Z,34.40
2018-08-24T04:08:14.784Z,34.07
2018-08-24T04:10:44.041Z,31.93
2018-08-24T04:13:32.718Z,30.83
2018-08-24T04:16:04.871Z,29.83
2018-08-24T04:18:35.078Z,28.23
2018-08-24T04:21:05.151Z,27.50
2018-08-24T04:23:34.565Z,25.00
2018-08-24T04:26:09.059Z,24.77
2018-08-24T04:28:38.403Z,19.83
2018-08-24T04:31:07.693Z,20.20
2018-08-24T04:33:36.946Z,23.00
2018-08-24T04:36:06.219Z,21.30
2018-08-24T04:49:50.499Z,20.10
2018-08-24T04:59:11.122Z,20.10
2018-08-24T05:01:40.541Z,21.60
2018-08-24T05:04:10.457Z,21.67
2018-08-24T05:06:39.637Z,22.23
2018-08-24T05:09:12.396Z,20.50
2018-08-24T05:11:41.715Z,21.13
2018-08-24T05:14:12.590Z,19.20
2018-08-24T05:16:41.814Z,23.10
2018-08-24T05:19:11.118Z,22.17
2018-08-24T05:21:40.269Z,21.07
2018-08-24T05:24:09.569Z,20.47
2018-08-24T05:26:42.727Z,21.20
2018-08-24T05:29:11.977Z,21.60
2018-08-24T05:31:41.351Z,22.63
2018-08-24T05:34:10.599Z,21.27
2018-08-24T05:36:42.982Z,20.43
2018-08-24T05:39:12.400Z,21.03
2018-08-24T05:41:41.764Z,20.60
2018-08-24T05:44:11.038Z,21.60
2018-08-24T05:46:42.514Z,20.40
2018-08-24T05:49:11.632Z,21.00
2018-08-24T05:51:41.120Z,21.20
2018-08-24T05:54:10.511Z,19.97
2018-08-24T05:56:39.749Z,21.50
2018-08-24T05:59:09.096Z,19.33
2018-08-24T06:01:38.402Z,20.73
2018-08-24T06:04:07.604Z,21.73
2018-08-24T06:06:36.862Z,21.03
2018-08-24T06:09:15.193Z,21.00
2018-08-24T06:11:44.131Z,22.10
2018-08-24T06:14:14.198Z,23.00
2018-08-24T06:16:50.503Z,21.50
2018-08-24T06:19:19.819Z,21.30
2018-08-24T06:21:48.458Z,20.43
2018-08-24T06:24:17.744Z,19.50
2018-08-24T06:26:47.946Z,18.70
2018-08-24T06:29:16.894Z,19.83
2018-08-24T06:31:46.164Z,18.83
2018-08-24T06:34:16.213Z,18.70
2018-08-24T06:36:46.739Z,17.63
2018-08-24T06:39:16.059Z,18.63
2018-08-24T06:41:45.514Z,19.20
2018-08-24T06:44:14.661Z,18.07
2018-08-24T06:46:44.416Z,19.07
2018-08-24T06:49:13.854Z,18.20
2018-08-24T06:51:43.273Z,19.70
2018-08-24T06:54:12.780Z,19.00
2018-08-24T06:56:42.361Z,17.97
2018-08-24T06:59:11.975Z,20.07
2018-08-24T07:01:41.899Z,19.83
2018-08-24T07:04:11.416Z,18.17
2018-08-24T07:06:40.897Z,18.63
2018-08-24T07:09:10.820Z,18.57
2018-08-24T07:11:40.124Z,17.07
2018-08-24T07:14:12.097Z,15.93
2018-08-24T07:16:41.856Z,16.07
2018-08-24T07:19:11.109Z,14.97
2018-08-24T07:21:40.690Z,14.17
2018-08-24T07:24:10.715Z,12.67
2018-08-24T07:26:40.164Z,12.53
2018-08-24T07:30:06.318Z,13.60
2018-08-24T07:32:37.997Z,13.13
2018-08-24T07:35:20.374Z,17.13
2018-08-24T07:37:49.042Z,15.47
2018-08-24T07:40:17.992Z,13.90
2018-08-24T07:42:47.130Z,13.47
2018-08-24T07:45:16.203Z,13.37
2018-08-24T07:47:45.874Z,12.23
2018-08-24T07:50:15.249Z,17.03
2018-08-24T07:52:44.506Z,14.63
2018-08-24T07:55:13.931Z,14.53
2018-08-24T07:57:43.661Z,13.40
2018-08-24T08:00:13.307Z,15.13
2018-08-24T08:02:45.945Z,13.07
2018-08-24T08:05:16.185Z,14.97
2018-08-24T08:07:45.705Z,21.67
2018-08-24T08:11:47.287Z,13.83
2018-08-24T08:14:16.591Z,14.57
2018-08-24T08:20:12.325Z,14.43
2018-08-24T08:22:41.758Z,11.83
2018-08-24T08:25:11.491Z,12.43
2018-08-24T08:30:36.202Z,12.47
2018-08-24T08:36:35.973Z,11.77
2018-08-24T08:42:07.751Z,10.37
2018-08-24T08:44:37.392Z,11.30
2018-08-24T08:47:06.825Z,10.17
2018-08-24T08:53:17.637Z,10.70
2018-08-24T08:55:47.608Z,9.50
2018-08-24T08:58:35.088Z,8.77
2018-08-24T09:01:18.936Z,9.25
2018-08-24T09:03:47.948Z,8.40
2018-08-24T09:06:18.672Z,8.20
2018-08-24T09:08:48.273Z,8.68
2018-08-24T09:11:18.837Z,6.62
2018-08-24T09:13:47.982Z,5.80
2018-08-24T09:16:18.163Z,7.90
2018-08-24T09:18:52.653Z,7.25
2018-08-24T09:21:30.636Z,7.85
2018-08-24T09:24:10.528Z,6.72
2018-08-24T09:26:46.335Z,6.85
2018-08-24T09:29:20.628Z,5.87
2018-08-24T09:31:49.369Z,7.58
2018-08-24T09:34:18.468Z,6.72
2018-08-24T09:36:47.696Z,6.80
2018-08-24T09:39:17.157Z,6.87
2018-08-24T09:41:45.821Z,7.05
2018-08-24T09:44:15.372Z,8.78
2018-08-24T09:46:52.015Z,6.95
2018-08-24T09:49:33.239Z,6.83
2018-08-24T09:52:10.422Z,7.40
2018-08-24T09:54:40.179Z,7.15
2018-08-24T09:57:09.696Z,7.55
2018-08-24T09:59:41.058Z,6.93
2018-08-24T10:02:15.470Z,9.40
2018-08-24T10:04:49.901Z,10.50
2018-08-24T10:07:31.587Z,10.67
2018-08-24T10:10:11.440Z,10.43
2018-08-24T10:13:12.290Z,11.27
2018-08-24T10:15:51.814Z,11.73
2018-08-24T10:22:20.531Z,8.27
2018-08-24T10:25:05.445Z,8.40
2018-08-24T10:27:40.853Z,6.53
2018-08-24T10:50:06.376Z,2.17
2018-08-24T10:52:41.139Z,2.20
2018-08-24T10:55:11.399Z,2.30
2018-08-24T10:58:15.473Z,2.80
2018-08-24T11:00:44.351Z,2.97
2018-08-24T11:03:12.989Z,2.70
2018-08-24T11:05:41.651Z,2.87
2018-08-24T11:08:14.837Z,3.30
2018-08-24T11:10:43.477Z,2.50
2018-08-24T11:13:18.050Z,2.57
2018-08-24T11:16:05.472Z,3.20
2018-08-24T11:18:42.029Z,3.13
2018-08-24T11:21:11.660Z,3.47
2018-08-24T11:23:41.547Z,3.47
2018-08-24T11:26:11.585Z,3.27
2018-08-24T11:28:41.200Z,3.43
2018-08-24T11:31:11.269Z,3.90
2018-08-24T11:33:42.017Z,4.37
2018-08-24T11:36:11.615Z,4.40
2018-08-24T11:39:31.553Z,4.10
2018-08-24T11:42:11.330Z,4.00
2018-08-24T11:44:41.635Z,4.13
2018-08-24T11:50:09.378Z,5.50
2018-08-24T11:52:40.849Z,4.63
2018-08-24T12:02:34.277Z,5.80
2018-08-24T12:05:04.297Z,5.37
2018-08-24T12:14:38.069Z,5.80
2018-08-24T12:20:41.680Z,6.03
2018-08-24T12:26:58.920Z,6.07
2018-08-24T12:29:35.420Z,5.73
2018-08-24T12:32:09.674Z,6.37
2018-08-24T12:47:43.626Z,5.33
2018-08-24T13:02:40.001Z,5.67
2018-08-24T13:09:12.919Z,5.57
2018-08-24T13:11:42.350Z,6.07
2018-08-24T13:17:40.787Z,6.70
2018-08-24T13:27:12.625Z,5.30
2018-08-24T14:11:40.496Z,6.60
2018-08-24T14:14:09.725Z,6.00
2018-08-24T14:16:40.268Z,6.47
2018-08-24T14:19:43.728Z,6.20
2018-08-24T14:29:36.266Z,6.50
2018-08-24T14:39:25.239Z,7.67
2018-08-24T14:42:09.100Z,6.97
2018-08-24T15:04:56.611Z,6.27
2018-08-24T15:07:28.220Z,6.10
2018-08-24T15:09:57.330Z,6.47
2018-08-24T15:12:27.308Z,5.53
2018-08-24T15:14:57.273Z,6.67
2018-08-24T15:17:28.020Z,6.23
2018-08-24T15:19:57.428Z,6.47
2018-08-24T15:22:27.208Z,6.40
2018-08-24T15:24:57.518Z,6.47
2018-08-24T15:27:27.585Z,7.07
2018-08-24T15:29:57.368Z,6.40
2018-08-24T15:32:27.795Z,6.83
2018-08-24T15:34:57.711Z,6.67
2018-08-24T15:37:27.791Z,6.77
2018-08-24T15:39:57.786Z,6.77
2018-08-24T15:42:27.439Z,7.47
2018-08-24T15:44:57.200Z,6.33
2018-08-24T15:47:33.841Z,6.73
2018-08-24T15:50:02.781Z,6.53
2018-08-24T15:52:32.048Z,7.13
2018-08-24T15:55:01.490Z,6.93
2018-08-24T15:57:30.966Z,6.63
2018-08-24T16:00:00.723Z,6.77
2018-08-24T16:02:30.396Z,6.73
2018-08-24T16:05:00.086Z,6.80
2018-08-24T16:07:31.095Z,6.13
2018-08-24T16:10:00.546Z,6.23
2018-08-24T16:12:30.718Z,5.97
2018-08-24T16:15:00.545Z,6.47
2018-08-24T16:17:30.387Z,6.03
2018-08-24T16:19:59.569Z,6.00
2018-08-24T16:22:28.980Z,6.33
2018-08-24T16:24:59.465Z,5.80
2018-08-24T16:27:29.430Z,5.60
2018-08-24T16:29:58.915Z,5.83
2018-08-24T16:32:28.573Z,5.40
2018-08-24T16:34:58.251Z,5.40
2018-08-24T16:37:28.163Z,4.90
2018-08-24T16:39:57.367Z,4.50
2018-08-24T16:42:41.661Z,3.93
2018-08-24T16:45:10.575Z,3.83
2018-08-24T16:47:39.803Z,3.20
2018-08-24T16:50:09.069Z,3.10
2018-08-24T16:52:38.372Z,3.70
2018-08-24T16:55:08.606Z,3.33
2018-08-24T16:57:39.851Z,3.40
2018-08-24T17:00:09.584Z,2.87
2018-08-24T17:02:38.471Z,2.57
2018-08-24T17:05:08.131Z,2.23
2018-08-24T17:07:39.169Z,2.93
2018-08-24T17:10:08.988Z,4.07
2018-08-24T17:12:38.514Z,2.50
2018-08-24T17:15:09.526Z,2.80
2018-08-24T17:17:39.083Z,2.77
2018-08-24T17:20:08.444Z,2.90
2018-08-24T17:22:41.085Z,3.10
2018-08-24T17:25:10.231Z,3.10
2018-08-24T17:27:39.869Z,2.37
2018-08-24T17:30:09.572Z,2.47
2018-08-24T17:32:39.322Z,3.10
2018-08-24T17:35:08.627Z,2.43
2018-08-24T17:37:38.104Z,3.47
2018-08-24T17:40:07.501Z,2.70
2018-08-24T17:42:37.226Z,2.97
2018-08-24T17:45:07.844Z,3.33
2018-08-24T17:47:37.149Z,3.00
2018-08-24T17:50:07.264Z,2.40
2018-08-24T17:52:36.928Z,2.60
2018-08-24T17:55:06.599Z,2.80
2018-08-24T17:57:37.182Z,2.80
2018-08-24T18:00:07.365Z,2.87
2018-08-24T18:02:37.189Z,2.87
2018-08-24T18:05:07.594Z,2.80
2018-08-24T18:07:37.015Z,2.33
2018-08-24T18:10:06.482Z,3.13
2018-08-24T18:12:35.082Z,3.07
2018-08-24T18:15:04.757Z,2.77
2018-08-24T18:17:33.380Z,3.33
2018-08-24T18:20:06.761Z,3.10
2018-08-24T18:22:35.937Z,2.53
2018-08-24T18:25:05.411Z,2.83
2018-08-24T18:27:36.533Z,2.40
2018-08-24T18:30:05.627Z,2.77
2018-08-24T18:32:34.670Z,2.97
2018-08-24T18:35:04.231Z,3.03
2018-08-24T18:37:34.551Z,2.57
2018-08-24T18:40:04.243Z,3.03
2018-08-24T18:42:33.684Z,2.53
2018-08-24T18:45:03.246Z,3.07
2018-08-24T18:47:32.563Z,3.00
2018-08-24T18:50:02.364Z,3.37
2018-08-24T18:52:31.897Z,3.13
2018-08-24T18:55:00.841Z,2.87
2018-08-24T18:57:30.528Z,3.13
2018-08-24T19:00:01.396Z,2.73
2018-08-24T19:02:32.587Z,3.07
2018-08-24T19:05:01.221Z,3.00
2018-08-24T19:07:31.067Z,3.40
2018-08-24T19:10:00.360Z,3.20
2018-08-24T19:12:30.965Z,3.60
2018-08-24T19:15:00.307Z,3.30
2018-08-24T19:17:35.832Z,2.80
2018-08-24T19:20:10.148Z,3.10
2018-08-24T19:22:43.142Z,2.97
2018-08-24T19:25:11.795Z,3.10
2018-08-24T19:27:46.095Z,2.40
2018-08-24T19:30:22.904Z,3.40
2018-08-24T19:32:55.570Z,2.90
2018-08-24T19:35:26.319Z,4.13
2018-08-24T19:37:56.876Z,2.90
2018-08-24T19:40:32.565Z,2.70
2018-08-24T19:43:01.992Z,3.10
2018-08-24T19:45:31.784Z,3.07
2018-08-24T19:48:06.215Z,3.60
2018-08-24T19:50:35.248Z,3.40
2018-08-24T19:53:04.528Z,3.00
2018-08-24T19:55:34.082Z,3.10
2018-08-24T19:58:08.687Z,3.50
2018-08-24T20:00:37.727Z,3.23
2018-08-24T20:03:06.926Z,4.10
2018-08-24T20:05:36.627Z,3.13
2018-08-24T20:08:11.308Z,3.10
2018-08-24T20:10:39.977Z,3.77
2018-08-24T20:13:08.599Z,3.50
2018-08-24T20:15:42.599Z,3.43
2018-08-24T20:18:11.253Z,3.90
2018-08-24T20:20:39.947Z,3.80
2018-08-24T20:23:08.864Z,4.33
2018-08-24T20:25:38.725Z,4.03
2018-08-24T20:28:07.835Z,3.63
2018-08-24T20:30:36.737Z,4.37
2018-08-24T20:33:06.621Z,4.20
2018-08-24T20:35:35.667Z,4.27
2018-08-24T20:38:06.621Z,4.00
2018-08-24T20:40:35.798Z,3.50
2018-08-24T20:43:05.119Z,4.17
2018-08-24T20:45:35.621Z,3.37
2018-08-24T20:48:05.499Z,5.10
2018-08-24T20:50:35.298Z,3.53
2018-08-24T20:53:05.217Z,3.83
2018-08-24T20:55:34.889Z,3.57
2018-08-24T20:58:04.223Z,3.63
2018-08-24T21:00:33.889Z,3.63
2018-08-24T21:03:05.796Z,3.10
2018-08-24T21:05:35.055Z,3.63
2018-08-24T21:08:05.046Z,3.17
2018-08-24T21:10:35.238Z,3.60
2018-08-24T21:13:05.142Z,3.00
2018-08-24T21:15:37.343Z,3.27
2018-08-24T21:18:07.416Z,3.83
2018-08-24T21:20:40.320Z,3.50
2018-08-24T21:23:09.392Z,3.70
2018-08-24T21:25:38.775Z,3.23
2018-08-24T21:28:08.038Z,2.97
2018-08-24T21:30:37.156Z,4.07
2018-08-24T21:33:07.341Z,3.80
2018-08-24T21:35:37.646Z,4.83
2018-08-24T21:38:07.816Z,4.20
2018-08-24T21:40:37.261Z,5.33
2018-08-24T21:43:07.410Z,4.90
2018-08-24T21:45:36.939Z,4.60
2018-08-24T21:48:06.060Z,4.23
2018-08-24T21:50:35.456Z,5.30
2018-08-24T21:53:04.592Z,6.03
2018-08-24T21:55:34.217Z,6.17
2018-08-24T21:58:03.761Z,6.27
2018-08-24T22:00:37.148Z,5.57
2018-08-24T22:03:06.495Z,4.37
2018-08-24T22:05:35.964Z,4.60
2018-08-24T22:08:05.822Z,4.07
2018-08-24T22:10:35.705Z,3.70
2018-08-24T22:13:05.189Z,3.90
2018-08-24T22:15:34.756Z,3.77
2018-08-24T22:18:04.826Z,4.37
2018-08-24T22:20:34.375Z,4.83
2018-08-24T22:23:04.881Z,4.70
2018-08-24T22:25:34.205Z,4.57
2018-08-24T22:28:04.350Z,4.53
2018-08-24T22:30:33.827Z,3.77
2018-08-24T22:33:03.018Z,4.20
2018-08-24T22:35:32.676Z,4.20
2018-08-24T22:38:01.929Z,4.30
2018-08-24T22:40:31.236Z,3.93
2018-08-24T22:43:00.746Z,4.10
2018-08-24T22:45:32.993Z,4.23
2018-08-24T22:48:02.020Z,4.00
2018-08-24T22:50:31.395Z,4.17
2018-08-24T22:53:00.819Z,4.00
2018-08-24T22:55:30.492Z,3.93
2018-08-24T22:58:00.029Z,4.03
2018-08-24T23:00:29.768Z,3.93
2018-08-24T23:02:59.193Z,4.10
2018-08-24T23:05:28.657Z,4.00
2018-08-24T23:07:59.562Z,3.73
2018-08-24T23:10:29.042Z,4.30
2018-08-24T23:12:58.365Z,3.73
2018-08-24T23:15:27.803Z,4.40
2018-08-24T23:17:57.347Z,4.27
2018-08-24T23:20:26.444Z,3.90
2018-08-24T23:22:55.159Z,3.83
2018-08-24T23:25:24.933Z,4.13
2018-08-24T23:27:56.843Z,4.90
2018-08-24T23:30:27.817Z,4.80
2018-08-24T23:32:57.441Z,4.73
2018-08-24T23:35:27.858Z,4.20
2018-08-24T23:37:57.437Z,3.87
2018-08-24T23:40:27.626Z,3.73
2018-08-24T23:42:58.075Z,4.50
2018-08-24T23:45:28.841Z,3.83
2018-08-24T23:47:58.168Z,4.07
2018-08-24T23:53:42.209Z,4.10
2018-08-24T23:56:11.055Z,4.17
2018-08-24T23:58:39.968Z,4.10
